Time;durP1;ratioP1;P1;durP2;ratioP2;P2;SDS_P1;SDS_P2;PMS_P1;PMS_P2;Temp;Humidity;BMP_temperature;BMP_pressure;BME280_temperature;BME280_humidity;BME280_pressure;Samples;Min_cycle;Max_cycle;Signal;HPM_P1;HPM_P2
2023/01/27 00:00:11;;;;;;;21.10;10.33;;;1.50;99.90;;;;;;5064768;28;20587;-75
2023/01/27 00:02:37;;;;;;;20.37;9.00;;;1.60;99.90;;;;;;5061502;28;20297;-77
2023/01/27 00:05:03;;;;;;;21.23;9.90;;;1.60;99.90;;;;;;5051846;28;20233;-74
2023/01/27 00:07:28;;;;;;;24.50;9.93;;;1.60;99.90;;;;;;5061231;28;20706;-76
2023/01/27 00:09:54;;;;;;;22.57;9.67;;;1.60;99.90;;;;;;5065256;28;20228;-74
2023/01/27 00:15:10;;;;;;;19.50;9.27;;;1.60;99.90;;;;;;5062253;28;20592;-80
2023/01/27 00:17:36;;;;;;;21.40;9.83;;;1.60;99.90;;;;;;5047894;28;20189;-77
2023/01/27 00:20:02;;;;;;;18.23;8.97;;;1.60;99.90;;;;;;5050738;28;20210;-79
2023/01/27 00:25:12;;;;;;;20.37;9.60;;;1.60;99.90;;;;;;5064283;28;20226;-76
2023/01/27 00:27:38;;;;;;;22.50;10.17;;;1.60;99.90;;;;;;5060637;28;20204;-76
2023/01/27 00:30:06;;;;;;;23.20;10.07;;;1.60;99.90;;;;;;5067285;28;20233;-77
2023/01/27 00:35:17;;;;;;;20.00;8.87;;;1.60;99.90;;;;;;5061758;28;20711;-76
2023/01/27 00:37:46;;;;;;;17.00;8.80;;;1.60;99.90;;;;;;5064037;28;20219;-77
2023/01/27 00:40:13;;;;;;;16.87;8.87;;;1.60;99.90;;;;;;5062843;28;20218;-79
2023/01/27 00:42:38;;;;;;;20.90;9.20;;;1.70;99.90;;;;;;5065817;28;20226;-77
2023/01/27 00:47:50;;;;;;;17.43;7.53;;;1.60;99.90;;;;;;5065304;28;20189;-79
2023/01/27 00:50:16;;;;;;;16.93;8.37;;;1.60;99.90;;;;;;5068112;28;20285;-76
2023/01/27 00:52:42;;;;;;;15.97;8.07;;;1.60;99.90;;;;;;5062637;28;20227;-79
2023/01/27 00:55:14;;;;;;;15.27;7.93;;;1.60;99.90;;;;;;5065128;28;20298;-80
2023/01/27 00:57:39;;;;;;;17.27;8.53;;;1.60;99.90;;;;;;5047209;28;20211;-77
2023/01/27 01:00:06;;;;;;;13.53;7.30;;;1.70;99.90;;;;;;5062330;28;20186;-74
2023/01/27 01:02:32;;;;;;;16.33;7.70;;;1.70;99.90;;;;;;5068369;28;20224;-75
2023/01/27 01:04:57;;;;;;;17.53;8.00;;;1.70;99.90;;;;;;5063941;28;20215;-75
2023/01/27 01:07:23;;;;;;;15.17;7.53;;;1.60;99.90;;;;;;5064269;28;20265;-74
2023/01/27 01:09:49;;;;;;;13.67;7.83;;;1.60;99.90;;;;;;5067803;28;20213;-75
2023/01/27 01:12:15;;;;;;;14.03;8.03;;;1.60;99.90;;;;;;5050613;28;20208;-74
2023/01/27 01:14:40;;;;;;;16.57;7.60;;;1.60;99.90;;;;;;5068167;28;20186;-75
2023/01/27 01:17:06;;;;;;;15.23;7.37;;;1.60;99.90;;;;;;5068472;28;20562;-75
2023/01/27 01:19:32;;;;;;;14.17;7.07;;;1.60;99.90;;;;;;5065342;28;20208;-74
2023/01/27 01:21:57;;;;;;;15.20;8.00;;;1.70;99.90;;;;;;5069267;28;20214;-73
2023/01/27 01:24:23;;;;;;;14.90;7.97;;;1.60;99.90;;;;;;5065537;28;20566;-71
2023/01/27 01:26:48;;;;;;;13.33;7.30;;;1.70;99.90;;;;;;5069685;28;20199;-73
2023/01/27 01:29:14;;;;;;;16.90;7.50;;;1.60;99.90;;;;;;5064662;28;20175;-73
2023/01/27 01:31:40;;;;;;;15.23;6.87;;;1.60;99.90;;;;;;5052442;28;20266;-75
2023/01/27 01:34:05;;;;;;;14.30;7.37;;;1.60;99.90;;;;;;5072962;28;20294;-74
2023/01/27 01:36:31;;;;;;;16.87;8.53;;;1.60;99.90;;;;;;5071872;28;20214;-74
2023/01/27 01:38:57;;;;;;;14.47;7.00;;;1.60;99.90;;;;;;5072305;28;20179;-71
2023/01/27 01:41:23;;;;;;;14.63;7.13;;;1.60;99.90;;;;;;5054852;28;20712;-73
2023/01/27 01:43:50;;;;;;;18.63;8.23;;;1.60;99.90;;;;;;5071844;28;20210;-74
2023/01/27 01:46:17;;;;;;;18.53;8.80;;;1.60;99.90;;;;;;5070056;28;20576;-74
2023/01/27 01:48:52;;;;;;;18.00;8.57;;;1.60;99.90;;;;;;5065577;28;20872;-74
2023/01/27 01:51:24;;;;;;;21.50;8.60;;;1.60;99.90;;;;;;5050154;28;20218;-74
2023/01/27 01:53:52;;;;;;;16.13;8.00;;;1.60;99.90;;;;;;5065648;28;20172;-74
2023/01/27 01:56:29;;;;;;;16.73;8.20;;;1.60;99.90;;;;;;5062263;28;20248;-74
2023/01/27 01:59:00;;;;;;;18.60;8.03;;;1.60;99.90;;;;;;5067266;28;20211;-74
2023/01/27 02:01:25;;;;;;;15.73;8.23;;;1.70;99.90;;;;;;5062965;28;20220;-74
2023/01/27 02:03:56;;;;;;;17.53;8.53;;;1.60;99.90;;;;;;5067485;28;20210;-73
2023/01/27 02:06:21;;;;;;;17.77;9.20;;;1.60;99.90;;;;;;5065540;28;20254;-73
2023/01/27 02:08:49;;;;;;;16.60;8.23;;;1.60;99.90;;;;;;5064762;28;20233;-73
2023/01/27 02:11:15;;;;;;;23.40;9.60;;;1.70;99.90;;;;;;5066640;28;20181;-73
2023/01/27 02:13:42;;;;;;;19.30;9.30;;;1.70;99.90;;;;;;5065052;28;20563;-73
2023/01/27 02:16:10;;;;;;;19.73;10.10;;;1.70;99.90;;;;;;5064248;28;20709;-74
2023/01/27 02:18:40;;;;;;;20.87;9.33;;;1.70;99.90;;;;;;5066322;28;20207;-74
2023/01/27 02:21:06;;;;;;;20.20;8.97;;;1.70;99.90;;;;;;5063512;28;20245;-74
2023/01/27 02:23:53;;;;;;;18.83;9.00;;;1.70;99.90;;;;;;5069764;28;20175;-73
2023/01/27 02:26:27;;;;;;;19.50;8.83;;;1.70;99.90;;;;;;5064496;28;20294;-74
2023/01/27 02:29:06;;;;;;;15.43;8.97;;;1.70;99.90;;;;;;5067425;28;20217;-74
2023/01/27 02:31:32;;;;;;;19.43;9.13;;;1.70;99.90;;;;;;5047673;28;20217;-74
2023/01/27 02:34:16;;;;;;;19.23;8.77;;;1.70;99.90;;;;;;5063498;28;20207;-73
2023/01/27 02:36:59;;;;;;;16.30;8.00;;;1.70;99.90;;;;;;5067916;28;20842;-74
2023/01/27 02:39:30;;;;;;;19.03;8.40;;;1.70;99.90;;;;;;5062685;28;20215;-73
2023/01/27 02:41:57;;;;;;;18.37;8.70;;;1.70;99.90;;;;;;5066590;28;20209;-73
2023/01/27 02:44:23;;;;;;;18.47;9.17;;;1.70;99.90;;;;;;5047373;28;20700;-73
2023/01/27 02:46:48;;;;;;;17.90;7.93;;;1.70;99.90;;;;;;5063890;28;20219;-73
2023/01/27 02:49:14;;;;;;;20.37;8.13;;;1.70;99.90;;;;;;5052653;28;20214;-74
2023/01/27 02:51:40;;;;;;;19.30;7.90;;;1.70;99.90;;;;;;5065713;28;20218;-74
2023/01/27 02:54:06;;;;;;;17.33;7.70;;;1.80;99.90;;;;;;5048775;28;20276;-73
2023/01/27 02:56:32;;;;;;;20.17;8.33;;;1.70;99.90;;;;;;5065562;28;20199;-73
2023/01/27 02:58:57;;;;;;;19.63;8.33;;;1.70;99.90;;;;;;5063730;28;20261;-72
2023/01/27 03:01:24;;;;;;;17.73;7.90;;;1.70;99.90;;;;;;5060554;28;21152;-73
2023/01/27 03:03:50;;;;;;;21.80;9.13;;;1.70;99.90;;;;;;5060865;28;20208;-73
2023/01/27 03:06:16;;;;;;;21.37;8.83;;;1.80;99.90;;;;;;5045457;28;20314;-72
2023/01/27 03:08:42;;;;;;;17.10;7.13;;;1.70;99.90;;;;;;5066528;28;20207;-73
2023/01/27 03:11:09;;;;;;;16.80;7.37;;;1.60;99.90;;;;;;5062889;28;20681;-74
2023/01/27 03:13:36;;;;;;;17.10;8.57;;;1.70;99.90;;;;;;5066518;28;20207;-73
2023/01/27 03:18:48;;;;;;;16.33;7.80;;;1.70;99.90;;;;;;5062564;28;20230;-73
2023/01/27 03:21:16;;;;;;;14.23;7.10;;;1.70;99.90;;;;;;5064254;28;20215;-73
2023/01/27 03:23:44;;;;;;;17.60;8.27;;;1.80;99.90;;;;;;5066857;28;20179;-73
2023/01/27 03:26:10;;;;;;;18.57;8.87;;;1.80;99.90;;;;;;5062339;28;20242;-74
2023/01/27 03:28:36;;;;;;;25.30;9.90;;;1.80;99.90;;;;;;5063045;28;20241;-73
2023/01/27 03:31:07;;;;;;;18.47;9.40;;;1.80;99.90;;;;;;5063252;28;20203;-71
2023/01/27 03:33:33;;;;;;;16.87;8.37;;;1.90;99.90;;;;;;5062166;28;20258;-73
2023/01/27 03:47:00;;;;;;;20.70;9.17;;;1.70;99.90;;;;;;5061129;28;20218;-73
2023/01/27 03:49:26;;;;;;;18.43;7.97;;;1.80;99.90;;;;;;5059696;28;20591;-72
2023/01/27 03:51:51;;;;;;;18.70;8.87;;;1.80;99.90;;;;;;5051566;28;20198;-73
2023/01/27 03:54:18;;;;;;;20.83;8.03;;;1.80;99.90;;;;;;5045233;28;20214;-71
2023/01/27 03:56:44;;;;;;;15.83;7.67;;;1.80;99.90;;;;;;5043745;28;20250;-73
2023/01/27 03:59:09;;;;;;;15.77;8.13;;;1.80;99.90;;;;;;5062522;28;20286;-73
2023/01/27 04:01:35;;;;;;;18.23;8.57;;;1.80;99.90;;;;;;5065144;28;20211;-73
2023/01/27 04:06:59;;;;;;;20.10;8.53;;;1.90;99.90;;;;;;5063680;28;21087;-73
2023/01/27 04:09:32;;;;;;;18.37;7.87;;;1.80;99.90;;;;;;5061221;28;20210;-72
2023/01/27 04:11:59;;;;;;;19.80;8.93;;;1.80;99.90;;;;;;5051952;28;20762;-72
2023/01/27 04:14:30;;;;;;;17.10;7.63;;;1.80;99.90;;;;;;5042225;28;20195;-71
2023/01/27 04:17:04;;;;;;;19.77;8.37;;;1.90;99.90;;;;;;5067380;28;20217;-72
2023/01/27 04:19:30;;;;;;;18.50;7.83;;;1.90;99.90;;;;;;5062038;28;20567;-73
2023/01/27 04:21:57;;;;;;;18.27;7.17;;;1.90;99.90;;;;;;5061741;28;20214;-71
2023/01/27 04:24:23;;;;;;;16.10;7.27;;;1.90;99.90;;;;;;5066275;28;20230;-73
2023/01/27 04:26:56;;;;;;;19.43;7.93;;;1.80;99.90;;;;;;5065543;28;20242;-73
2023/01/27 04:29:24;;;;;;;21.10;8.50;;;1.80;99.90;;;;;;5064258;28;20221;-74
2023/01/27 04:31:50;;;;;;;17.07;7.33;;;1.80;99.90;;;;;;5059873;28;20238;-73
2023/01/27 04:34:16;;;;;;;17.80;8.53;;;1.80;99.90;;;;;;5062505;28;20202;-72
2023/01/27 04:36:42;;;;;;;16.90;8.17;;;1.80;99.90;;;;;;5047151;28;20300;-74
2023/01/27 04:39:08;;;;;;;17.30;7.80;;;1.90;99.90;;;;;;5044464;28;20213;-73
2023/01/27 04:41:35;;;;;;;15.47;7.30;;;1.90;99.90;;;;;;5062685;28;20209;-74
2023/01/27 04:44:02;;;;;;;16.03;7.40;;;1.90;99.90;;;;;;5047760;28;20210;-72
2023/01/27 04:46:28;;;;;;;18.90;7.27;;;1.90;99.90;;;;;;5058826;28;20606;-73
2023/01/27 04:48:54;;;;;;;14.57;7.57;;;1.90;99.90;;;;;;5051626;28;20211;-73
2023/01/27 04:51:19;;;;;;;13.10;6.77;;;1.90;99.90;;;;;;5044324;28;20214;-73
2023/01/27 04:53:45;;;;;;;14.67;6.80;;;1.80;99.90;;;;;;5063811;28;20173;-73
2023/01/27 04:56:22;;;;;;;17.37;6.43;;;1.90;99.90;;;;;;5065307;28;20215;-73
2023/01/27 04:58:48;;;;;;;14.93;6.07;;;1.80;99.90;;;;;;5044047;28;20226;-74
2023/01/27 05:01:13;;;;;;;16.60;7.97;;;1.90;99.90;;;;;;5059190;28;20442;-74
2023/01/27 05:03:39;;;;;;;15.17;7.17;;;1.90;99.90;;;;;;5044527;28;20293;-73
2023/01/27 05:06:05;;;;;;;17.53;7.30;;;1.90;99.90;;;;;;5065699;28;20213;-73
2023/01/27 05:08:30;;;;;;;11.20;6.07;;;1.90;99.90;;;;;;5068305;28;20176;-73
2023/01/27 05:10:56;;;;;;;15.30;7.40;;;1.90;99.90;;;;;;5067720;28;20203;-71
2023/01/27 05:13:21;;;;;;;15.17;6.60;;;2.00;99.90;;;;;;5067646;28;20547;-74
2023/01/27 05:15:47;;;;;;;14.57;6.60;;;2.00;99.90;;;;;;5067298;28;20225;-73
2023/01/27 05:18:13;;;;;;;15.30;6.87;;;2.00;99.90;;;;;;5063628;28;21298;-74
2023/01/27 05:20:39;;;;;;;11.77;5.87;;;2.00;99.90;;;;;;5068935;28;20172;-73
2023/01/27 05:25:49;;;;;;;14.37;6.37;;;2.00;99.90;;;;;;5067750;28;20295;-73
2023/01/27 05:28:14;;;;;;;14.00;6.63;;;2.00;99.90;;;;;;5049782;28;20281;-73
2023/01/27 05:30:40;;;;;;;17.20;7.03;;;2.00;99.90;;;;;;5062974;28;20200;-73
2023/01/27 05:33:07;;;;;;;12.93;6.87;;;2.10;99.90;;;;;;5054945;28;20178;-72
2023/01/27 05:35:34;;;;;;;17.00;7.30;;;2.10;99.90;;;;;;5046732;28;20234;-73
2023/01/27 05:38:00;;;;;;;19.43;7.60;;;2.10;99.90;;;;;;5068221;28;20261;-73
2023/01/27 05:40:25;;;;;;;16.17;7.20;;;2.00;99.90;;;;;;5067136;28;20210;-73
2023/01/27 05:42:52;;;;;;;17.57;8.03;;;2.00;99.90;;;;;;5065980;28;20215;-73
2023/01/27 05:45:17;;;;;;;13.07;6.93;;;2.00;99.90;;;;;;5066631;28;20212;-73
2023/01/27 05:47:46;;;;;;;14.37;7.40;;;2.10;99.90;;;;;;5066599;28;20245;-73
2023/01/27 05:50:12;;;;;;;12.40;6.70;;;2.10;99.90;;;;;;5065585;28;20203;-73
2023/01/27 05:52:38;;;;;;;13.77;7.53;;;2.10;99.90;;;;;;5067834;28;20298;-74
2023/01/27 05:55:04;;;;;;;14.67;6.77;;;2.10;99.90;;;;;;5053221;28;20218;-73
2023/01/27 05:57:29;;;;;;;16.27;7.07;;;2.10;99.90;;;;;;5066710;28;20204;-74
2023/01/27 05:59:55;;;;;;;16.97;7.40;;;2.10;99.90;;;;;;5067103;28;20190;-73
2023/01/27 06:02:20;;;;;;;14.60;6.93;;;2.10;99.90;;;;;;5048252;28;20629;-73
2023/01/27 06:04:46;;;;;;;15.10;7.47;;;2.10;99.90;;;;;;5068482;28;20207;-73
2023/01/27 06:07:11;;;;;;;14.67;6.97;;;2.10;99.90;;;;;;5046695;28;20203;-73
2023/01/27 06:09:37;;;;;;;16.07;7.73;;;2.10;99.90;;;;;;5046869;28;20562;-73
2023/01/27 06:12:03;;;;;;;13.57;6.83;;;2.10;99.90;;;;;;5068611;28;20226;-73
2023/01/27 06:14:29;;;;;;;13.77;6.53;;;2.10;99.90;;;;;;5064773;28;20207;-72
2023/01/27 06:16:54;;;;;;;15.27;7.43;;;2.10;99.90;;;;;;5066379;28;20790;-73
2023/01/27 06:19:20;;;;;;;13.87;7.20;;;2.10;99.90;;;;;;5062904;28;20204;-73
2023/01/27 06:21:45;;;;;;;16.10;6.80;;;2.10;99.90;;;;;;5063365;28;20225;-73
2023/01/27 06:24:11;;;;;;;14.90;6.73;;;2.00;99.90;;;;;;5053685;28;20217;-72
2023/01/27 06:26:37;;;;;;;14.80;7.07;;;2.00;99.90;;;;;;5063700;28;20206;-72
2023/01/27 06:29:02;;;;;;;13.23;6.13;;;2.10;99.90;;;;;;5067004;28;20211;-72
2023/01/27 06:31:28;;;;;;;11.67;5.67;;;2.10;99.90;;;;;;5065527;28;20264;-74
2023/01/27 06:33:54;;;;;;;12.80;6.57;;;2.10;99.90;;;;;;5064417;28;20703;-74
2023/01/27 06:36:21;;;;;;;13.23;6.37;;;2.10;99.90;;;;;;5050356;28;20226;-74
2023/01/27 06:38:47;;;;;;;12.50;6.30;;;2.10;99.90;;;;;;5047540;28;20670;-74
2023/01/27 06:41:13;;;;;;;12.70;6.60;;;2.20;99.90;;;;;;5046201;28;20262;-74
2023/01/27 06:43:39;;;;;;;16.17;6.47;;;2.20;99.90;;;;;;5065499;28;20697;-74
2023/01/27 06:46:05;;;;;;;15.23;7.33;;;2.20;99.90;;;;;;5063088;28;20211;-74
2023/01/27 06:48:30;;;;;;;13.37;5.70;;;2.20;99.90;;;;;;5061855;28;20203;-74
2023/01/27 06:50:56;;;;;;;11.60;6.00;;;2.10;99.90;;;;;;5066411;28;20194;-74
2023/01/27 06:53:23;;;;;;;13.00;6.70;;;2.20;99.90;;;;;;5064152;28;20187;-74
2023/01/27 06:55:53;;;;;;;16.60;7.60;;;2.20;99.90;;;;;;5068155;28;20581;-74
2023/01/27 06:58:19;;;;;;;14.77;7.10;;;2.20;99.90;;;;;;5062973;28;20724;-74
2023/01/27 07:00:44;;;;;;;17.80;7.37;;;2.20;99.90;;;;;;5065336;28;20203;-73
2023/01/27 07:03:11;;;;;;;13.20;6.93;;;2.30;99.90;;;;;;5065275;28;20220;-74
2023/01/27 07:05:39;;;;;;;15.17;6.53;;;2.30;99.90;;;;;;5064120;28;20200;-71
2023/01/27 07:08:05;;;;;;;16.33;7.27;;;2.30;99.90;;;;;;5068350;28;20207;-73
2023/01/27 07:10:31;;;;;;;11.90;6.03;;;2.30;99.90;;;;;;5063681;28;20263;-72
2023/01/27 07:13:05;;;;;;;14.03;6.57;;;2.30;99.90;;;;;;5066363;28;20208;-72
2023/01/27 07:15:31;;;;;;;14.23;7.20;;;2.30;99.90;;;;;;5063905;28;20208;-72
2023/01/27 07:17:58;;;;;;;19.70;8.40;;;2.30;99.90;;;;;;5064609;28;20194;-71
2023/01/27 07:20:27;;;;;;;17.50;7.97;;;2.30;99.90;;;;;;5050822;28;20544;-72
2023/01/27 07:22:55;;;;;;;17.43;8.10;;;2.40;99.90;;;;;;5062665;28;20224;-72
2023/01/27 07:25:20;;;;;;;14.40;6.97;;;2.40;99.90;;;;;;5061646;28;20327;-72
2023/01/27 07:27:46;;;;;;;16.70;7.67;;;2.30;99.90;;;;;;5047261;28;20962;-72
2023/01/27 07:30:12;;;;;;;15.90;7.50;;;2.30;99.90;;;;;;5063500;28;20237;-72
2023/01/27 07:32:38;;;;;;;18.53;7.80;;;2.40;99.90;;;;;;5048632;28;20201;-72
2023/01/27 07:35:04;;;;;;;17.90;7.87;;;2.40;99.90;;;;;;5066480;28;20201;-72
2023/01/27 07:37:29;;;;;;;26.77;13.53;;;2.40;99.90;;;;;;5044552;28;20214;-73
2023/01/27 07:39:55;;;;;;;18.13;8.87;;;2.50;99.90;;;;;;5051954;28;20687;-73
2023/01/27 07:42:20;;;;;;;20.63;8.60;;;2.50;99.90;;;;;;5063840;28;20223;-72
2023/01/27 07:44:46;;;;;;;20.97;9.53;;;2.60;99.90;;;;;;5064594;28;20183;-72
2023/01/27 07:47:12;;;;;;;23.63;7.47;;;2.60;99.90;;;;;;5048692;28;20703;-72
2023/01/27 07:49:37;;;;;;;19.03;7.80;;;2.60;99.90;;;;;;5064681;28;20207;-72
2023/01/27 07:52:03;;;;;;;14.57;6.93;;;2.60;99.90;;;;;;5052097;28;20201;-73
2023/01/27 07:54:28;;;;;;;15.10;7.10;;;2.70;99.90;;;;;;5048811;28;20299;-72
2023/01/27 07:56:54;;;;;;;16.73;7.73;;;2.70;99.90;;;;;;5069304;28;20222;-73
2023/01/27 07:59:20;;;;;;;20.00;7.90;;;2.70;99.90;;;;;;5068130;28;20178;-72
2023/01/27 08:01:45;;;;;;;18.93;8.33;;;2.80;99.90;;;;;;5065563;28;20215;-73
2023/01/27 08:04:11;;;;;;;20.50;9.30;;;2.80;99.90;;;;;;5048751;28;20209;-72
2023/01/27 08:06:38;;;;;;;17.40;8.83;;;2.80;99.90;;;;;;5066244;28;20611;-73
2023/01/27 08:09:04;;;;;;;16.97;8.87;;;2.90;99.90;;;;;;5049863;28;20361;-73
2023/01/27 08:11:29;;;;;;;18.07;8.30;;;2.90;99.90;;;;;;5065955;28;20350;-72
2023/01/27 08:13:55;;;;;;;15.13;7.47;;;2.90;99.90;;;;;;5064585;28;20207;-72
2023/01/27 08:16:21;;;;;;;13.53;7.57;;;3.00;99.90;;;;;;5066767;28;20215;-73
2023/01/27 08:18:46;;;;;;;16.10;7.80;;;3.00;99.90;;;;;;5063221;28;20226;-72
2023/01/27 08:21:12;;;;;;;13.30;7.60;;;3.00;99.90;;;;;;5046824;28;20224;-73
2023/01/27 08:23:38;;;;;;;13.53;7.50;;;3.00;99.90;;;;;;5068370;28;20237;-72
2023/01/27 08:26:05;;;;;;;13.33;7.07;;;3.10;99.90;;;;;;5064171;28;20211;-72
2023/01/27 08:28:33;;;;;;;17.63;7.53;;;3.10;99.90;;;;;;5050327;28;20589;-72
2023/01/27 08:31:13;;;;;;;11.93;6.70;;;3.10;99.90;;;;;;5067682;28;20952;-72
2023/01/27 08:33:39;;;;;;;17.80;7.90;;;3.10;99.90;;;;;;5066537;28;20222;-73
2023/01/27 08:36:09;;;;;;;13.13;7.23;;;3.20;99.90;;;;;;5067220;28;20734;-72
2023/01/27 08:38:36;;;;;;;12.83;7.07;;;3.20;99.90;;;;;;5048597;28;20676;-73
2023/01/27 08:41:04;;;;;;;14.37;7.43;;;3.20;99.90;;;;;;5048297;28;20722;-71
2023/01/27 08:43:31;;;;;;;15.83;7.23;;;3.30;99.90;;;;;;5050578;28;20221;-72
2023/01/27 08:45:57;;;;;;;13.07;7.63;;;3.30;99.90;;;;;;5069043;28;20220;-70
2023/01/27 08:48:22;;;;;;;13.00;7.43;;;3.30;99.90;;;;;;5064279;28;20829;-73
2023/01/27 08:50:49;;;;;;;14.33;7.20;;;3.40;99.90;;;;;;5069642;28;20198;-72
2023/01/27 08:53:15;;;;;;;12.63;6.77;;;3.40;99.90;;;;;;5066240;28;20182;-73
2023/01/27 08:55:41;;;;;;;12.70;7.40;;;3.50;99.90;;;;;;5069248;28;20316;-72
2023/01/27 08:58:06;;;;;;;10.37;6.63;;;3.50;99.90;;;;;;5069355;28;20307;-73
2023/01/27 09:00:34;;;;;;;13.33;7.00;;;3.50;99.90;;;;;;5051144;28;20205;-72
2023/01/27 09:02:59;;;;;;;12.20;7.50;;;3.60;99.90;;;;;;5070474;28;20210;-73
2023/01/27 09:05:25;;;;;;;13.50;6.87;;;3.60;99.90;;;;;;5070579;28;20220;-72
2023/01/27 09:07:50;;;;;;;12.37;7.60;;;3.60;99.90;;;;;;5072722;28;20225;-74
2023/01/27 09:10:16;;;;;;;13.07;7.83;;;3.60;99.90;;;;;;5071966;28;20211;-72
2023/01/27 09:12:43;;;;;;;17.43;7.57;;;3.60;99.90;;;;;;5071741;28;20221;-71
2023/01/27 09:15:09;;;;;;;17.23;7.67;;;3.70;99.90;;;;;;5054042;28;20293;-72
2023/01/27 09:17:35;;;;;;;12.80;7.03;;;3.70;99.90;;;;;;5071950;28;20194;-72
2023/01/27 09:20:01;;;;;;;13.20;6.67;;;3.70;99.90;;;;;;5054507;28;20213;-73
2023/01/27 09:22:27;;;;;;;14.90;7.30;;;3.80;99.90;;;;;;5053869;28;20300;-72
2023/01/27 09:24:53;;;;;;;14.33;7.00;;;3.80;99.90;;;;;;5070517;28;20265;-72
2023/01/27 09:27:18;;;;;;;10.43;6.40;;;3.80;99.90;;;;;;5051072;28;20753;-71
2023/01/27 09:29:44;;;;;;;12.07;6.63;;;3.80;99.90;;;;;;5047837;28;20183;-72
2023/01/27 09:32:11;;;;;;;9.40;5.60;;;3.80;99.90;;;;;;5069721;28;20206;-72
2023/01/27 09:34:37;;;;;;;8.67;5.60;;;3.80;99.90;;;;;;5068541;28;20716;-72
2023/01/27 09:37:09;;;;;;;11.57;6.37;;;3.80;99.90;;;;;;5065333;28;20237;-71
2023/01/27 09:39:40;;;;;;;10.17;5.70;;;3.80;99.90;;;;;;5051543;28;20222;-73
2023/01/27 09:42:28;;;;;;;8.87;5.80;;;3.90;99.90;;;;;;5054225;28;20684;-73
2023/01/27 09:45:18;;;;;;;10.57;6.23;;;3.90;99.90;;;;;;5050730;28;20276;-72
2023/01/27 09:48:12;;;;;;;10.97;6.17;;;3.90;99.90;;;;;;5069109;28;20679;-72
2023/01/27 09:50:41;;;;;;;9.83;5.83;;;3.90;99.90;;;;;;5067507;28;20224;-73
2023/01/27 09:53:28;;;;;;;12.73;6.67;;;3.90;99.90;;;;;;5071770;28;20221;-73
2023/01/27 09:56:08;;;;;;;10.50;6.23;;;3.90;99.90;;;;;;5051718;28;20214;-71
2023/01/27 09:59:03;;;;;;;12.33;7.20;;;3.90;99.90;;;;;;5051643;28;20305;-72
2023/01/27 10:01:29;;;;;;;10.13;6.00;;;3.90;99.90;;;;;;5067617;28;20238;-71
2023/01/27 10:04:29;;;;;;;12.20;6.90;;;3.90;99.90;;;;;;5067221;28;20613;-72
2023/01/27 10:07:11;;;;;;;10.00;6.67;;;3.90;99.90;;;;;;5064943;28;20342;-72
2023/01/27 10:09:57;;;;;;;10.77;6.40;;;3.90;99.90;;;;;;5064829;28;20221;-73
2023/01/27 10:12:58;;;;;;;11.37;6.40;;;3.90;99.90;;;;;;5049529;28;20722;-73
2023/01/27 10:16:03;;;;;;;9.87;6.47;;;4.00;99.90;;;;;;5066412;28;20280;-72
2023/01/27 10:18:39;;;;;;;10.47;6.47;;;3.90;99.90;;;;;;5060244;28;20246;-70
2023/01/27 10:21:26;;;;;;;8.13;6.20;;;4.00;99.90;;;;;;5048611;28;20198;-71
2023/01/27 10:24:17;;;;;;;10.77;6.63;;;3.90;99.90;;;;;;5052101;28;20198;-73
2023/01/27 10:27:03;;;;;;;9.03;6.10;;;4.00;99.90;;;;;;5046340;28;20693;-74
2023/01/27 10:29:45;;;;;;;7.63;5.67;;;4.00;99.90;;;;;;5067021;28;20281;-71
2023/01/27 10:32:43;;;;;;;9.03;6.33;;;4.00;99.90;;;;;;5064330;28;20207;-73
2023/01/27 10:35:26;;;;;;;10.07;5.40;;;3.90;99.90;;;;;;5068421;28;20217;-71
2023/01/27 10:38:19;;;;;;;8.70;4.93;;;3.90;99.90;;;;;;5081654;28;20231;-74
2023/01/27 10:41:01;;;;;;;7.70;5.37;;;3.90;99.90;;;;;;5062464;28;20211;-74
2023/01/27 10:43:54;;;;;;;9.73;5.87;;;4.00;99.90;;;;;;5045901;28;20228;-74
2023/01/27 10:46:52;;;;;;;8.10;5.57;;;4.00;99.90;;;;;;5066041;28;20215;-72
2023/01/27 10:49:37;;;;;;;9.20;5.90;;;4.00;99.90;;;;;;5067897;28;20292;-72
2023/01/27 10:52:25;;;;;;;13.77;6.57;;;4.10;99.90;;;;;;5064130;28;20232;-72
2023/01/27 10:54:59;;;;;;;11.90;7.17;;;4.10;99.90;;;;;;5052608;28;20195;-73
2023/01/27 10:57:36;;;;;;;11.57;5.60;;;4.10;99.90;;;;;;5045946;28;20219;-71
2023/01/27 11:00:05;;;;;;;8.67;5.47;;;4.20;99.90;;;;;;5053745;28;20175;-73
2023/01/27 11:02:40;;;;;;;8.63;5.37;;;4.20;99.90;;;;;;5046797;28;20199;-73
2023/01/27 11:05:23;;;;;;;10.73;5.33;;;4.20;99.90;;;;;;5048053;28;20228;-72
2023/01/27 11:07:56;;;;;;;8.67;4.67;;;4.20;99.90;;;;;;5067952;28;20211;-73
2023/01/27 11:10:29;;;;;;;8.10;5.47;;;4.30;99.90;;;;;;5064010;28;20206;-73
2023/01/27 11:12:56;;;;;;;9.83;5.30;;;4.20;99.90;;;;;;5052577;28;20213;-72
2023/01/27 11:15:34;;;;;;;7.00;4.70;;;4.30;99.90;;;;;;5065150;28;20263;-72
2023/01/27 11:18:11;;;;;;;7.60;4.20;;;4.30;99.90;;;;;;5063326;28;20175;-72
2023/01/27 11:20:44;;;;;;;6.37;4.17;;;4.30;99.90;;;;;;5067456;28;20201;-72
2023/01/27 11:23:10;;;;;;;7.37;4.27;;;4.40;99.90;;;;;;5061430;28;20222;-73
2023/01/27 11:25:58;;;;;;;6.47;3.63;;;4.40;99.90;;;;;;5065253;28;20236;-72
2023/01/27 11:28:36;;;;;;;10.97;4.60;;;4.40;99.90;;;;;;5063521;28;20289;-73
2023/01/27 11:31:19;;;;;;;6.73;4.57;;;4.40;99.90;;;;;;5049188;28;20214;-73
2023/01/27 11:34:04;;;;;;;9.00;4.60;;;4.40;99.90;;;;;;5066169;28;20215;-73
2023/01/27 11:36:32;;;;;;;6.87;4.70;;;4.40;99.90;;;;;;5060358;28;20250;-73
2023/01/27 11:38:57;;;;;;;8.77;4.40;;;4.40;99.90;;;;;;5068437;28;20178;-73
2023/01/27 11:41:24;;;;;;;7.93;4.60;;;4.40;99.90;;;;;;5070567;28;20311;-73
2023/01/27 11:43:50;;;;;;;8.27;4.73;;;4.50;99.90;;;;;;5062202;28;20210;-73
2023/01/27 11:46:23;;;;;;;8.23;5.37;;;4.50;99.90;;;;;;5066767;28;20227;-73
2023/01/27 11:48:53;;;;;;;9.40;5.57;;;4.60;99.90;;;;;;5043430;28;20214;-73
2023/01/27 11:51:21;;;;;;;6.27;4.70;;;4.50;99.90;;;;;;5066574;28;20302;-73
2023/01/27 11:54:14;;;;;;;17.90;6.73;;;4.50;99.90;;;;;;5047438;28;20188;-73
2023/01/27 11:56:42;;;;;;;7.77;4.87;;;4.50;99.90;;;;;;5068528;28;20208;-73
2023/01/27 11:59:23;;;;;;;9.43;4.70;;;4.50;99.90;;;;;;5051299;28;20209;-73
2023/01/27 12:01:56;;;;;;;18.60;6.30;;;4.50;99.90;;;;;;5067253;28;20314;-74
2023/01/27 12:04:55;;;;;;;7.57;4.50;;;4.70;99.90;;;;;;5064187;28;20686;-75
2023/01/27 12:07:39;;;;;;;6.97;4.23;;;4.70;99.90;;;;;;5057102;28;20207;-76
2023/01/27 12:10:20;;;;;;;6.90;4.27;;;4.70;99.90;;;;;;5065825;28;20265;-77
2023/01/27 12:12:46;;;;;;;10.50;5.03;;;4.50;99.90;;;;;;5065497;28;20210;-73
2023/01/27 12:15:15;;;;;;;10.90;5.40;;;4.50;99.90;;;;;;5063890;28;20229;-73
2023/01/27 12:17:44;;;;;;;7.17;5.03;;;4.40;99.90;;;;;;5049927;28;20179;-74
2023/01/27 12:20:33;;;;;;;11.93;5.10;;;4.40;99.90;;;;;;5065119;28;20210;-74
2023/01/27 12:23:10;;;;;;;18.40;9.03;;;4.50;99.90;;;;;;5066500;28;20222;-74
2023/01/27 12:25:46;;;;;;;11.00;5.90;;;4.50;99.90;;;;;;5068285;28;20217;-74
2023/01/27 12:28:44;;;;;;;12.27;6.23;;;4.40;99.90;;;;;;5069251;28;20297;-75
2023/01/27 12:31:15;;;;;;;13.43;5.87;;;4.40;99.90;;;;;;5039261;28;20206;-74
2023/01/27 12:33:49;;;;;;;15.67;6.60;;;4.40;99.90;;;;;;5064225;28;20230;-74
2023/01/27 12:36:21;;;;;;;9.00;5.80;;;4.30;99.90;;;;;;5051651;28;20590;-74
2023/01/27 12:38:52;;;;;;;11.17;5.57;;;4.30;99.90;;;;;;5062545;28;20217;-74
2023/01/27 12:41:30;;;;;;;15.77;6.93;;;4.30;99.90;;;;;;5065604;28;20285;-75
2023/01/27 12:43:58;;;;;;;9.50;5.63;;;4.30;99.90;;;;;;5044842;28;20261;-73
2023/01/27 12:46:27;;;;;;;14.63;5.60;;;4.30;99.90;;;;;;5058774;28;20270;-75
2023/01/27 12:49:01;;;;;;;14.23;5.33;;;4.20;99.90;;;;;;5061755;28;20581;-74
2023/01/27 12:51:40;;;;;;;9.27;4.80;;;4.20;99.90;;;;;;5061072;28;20265;-74
2023/01/27 12:54:27;;;;;;;8.87;4.20;;;4.30;99.90;;;;;;5065533;28;20220;-74
2023/01/27 12:56:59;;;;;;;8.30;4.83;;;4.30;99.90;;;;;;5063260;28;20226;-74
2023/01/27 12:59:25;;;;;;;12.77;6.67;;;4.20;99.90;;;;;;5062287;28;20186;-74
2023/01/27 13:02:14;;;;;;;13.47;5.07;;;4.20;99.90;;;;;;5064914;28;20218;-75
2023/01/27 13:04:41;;;;;;;11.57;4.63;;;4.20;99.90;;;;;;5059516;28;20676;-74
2023/01/27 13:07:16;;;;;;;10.27;4.60;;;4.20;99.90;;;;;;5051119;28;20217;-74
2023/01/27 13:09:54;;;;;;;9.13;5.20;;;4.20;99.90;;;;;;5043367;28;20249;-75
2023/01/27 13:12:28;;;;;;;16.93;6.13;;;4.30;99.90;;;;;;5047213;28;20217;-74
2023/01/27 13:15:04;;;;;;;10.53;4.70;;;4.40;99.90;;;;;;5064163;28;20538;-75
2023/01/27 13:17:43;;;;;;;10.80;4.07;;;4.30;99.90;;;;;;5058958;28;20187;-75
2023/01/27 13:20:18;;;;;;;7.80;4.00;;;4.20;99.90;;;;;;5049154;28;20708;-74
2023/01/27 13:22:47;;;;;;;7.23;3.80;;;4.20;99.90;;;;;;5060306;28;20630;-75
2023/01/27 13:25:23;;;;;;;15.23;4.03;;;4.20;99.90;;;;;;5068993;28;20298;-74
2023/01/27 13:27:55;;;;;;;8.57;3.40;;;4.20;99.90;;;;;;5048536;28;20207;-73
2023/01/27 13:30:32;;;;;;;9.00;3.40;;;4.10;99.90;;;;;;5047853;28;20681;-74
2023/01/27 13:33:15;;;;;;;4.13;2.93;;;4.10;99.90;;;;;;5065404;28;20193;-74